sensor_id;sensor_type;location;lat;lon;timestamp;pressure;altitude;pressure_sealevel;temperature
69186;BMP280;56298;49.246;9.410;2024-03-23T00:53:42;98655.00;;;9.03
69186;BMP280;56298;49.246;9.410;2024-03-23T00:56:07;98655.16;;;8.91
69186;BMP280;56298;49.246;9.410;2024-03-23T00:58:33;98661.47;;;8.95
69186;BMP280;56298;49.246;9.410;2024-03-23T01:00:58;98654.59;;;9.01
69186;BMP280;56298;49.246;9.410;2024-03-23T01:03:23;98646.81;;;9.03
69186;BMP280;56298;49.246;9.410;2024-03-23T01:05:48;98640.84;;;8.98
69186;BMP280;56298;49.246;9.410;2024-03-23T01:08:14;98640.31;;;8.72
69186;BMP280;56298;49.246;9.410;2024-03-23T01:10:39;98638.59;;;8.84
69186;BMP280;56298;49.246;9.410;2024-03-23T01:13:05;98629.81;;;8.94
69186;BMP280;56298;49.246;9.410;2024-03-23T01:15:30;98627.09;;;8.94
69186;BMP280;56298;49.246;9.410;2024-03-23T01:17:55;98623.34;;;9.02
69186;BMP280;56298;49.246;9.410;2024-03-23T01:20:20;98613.94;;;9.00
69186;BMP280;56298;49.246;9.410;2024-03-23T01:22:45;98616.34;;;8.85
69186;BMP280;56298;49.246;9.410;2024-03-23T01:25:11;98607.31;;;8.81
69186;BMP280;56298;49.246;9.410;2024-03-23T01:27:36;98609.75;;;8.86
69186;BMP280;56298;49.246;9.410;2024-03-23T01:30:01;98611.81;;;8.93
69186;BMP280;56298;49.246;9.410;2024-03-23T01:32:26;98605.78;;;8.84
69186;BMP280;56298;49.246;9.410;2024-03-23T01:34:52;98590.97;;;8.85
69186;BMP280;56298;49.246;9.410;2024-03-23T01:37:17;98597.50;;;9.00
69186;BMP280;56298;49.246;9.410;2024-03-23T01:39:42;98595.34;;;9.09
69186;BMP280;56298;49.246;9.410;2024-03-23T01:42:08;98582.69;;;9.21
69186;BMP280;56298;49.246;9.410;2024-03-23T01:44:33;98584.31;;;9.25
69186;BMP280;56298;49.246;9.410;2024-03-23T01:46:58;98586.72;;;9.07
69186;BMP280;56298;49.246;9.410;2024-03-23T01:49:24;98583.06;;;8.99
69186;BMP280;56298;49.246;9.410;2024-03-23T01:51:49;98583.25;;;9.10
69186;BMP280;56298;49.246;9.410;2024-03-23T01:54:15;98576.13;;;9.06
69186;BMP280;56298;49.246;9.410;2024-03-23T01:56:40;98572.59;;;9.05
69186;BMP280;56298;49.246;9.410;2024-03-23T01:59:06;98577.63;;;9.03
69186;BMP280;56298;49.246;9.410;2024-03-23T02:01:32;98573.19;;;8.95
69186;BMP280;56298;49.246;9.410;2024-03-23T02:03:58;98557.13;;;8.93
69186;BMP280;56298;49.246;9.410;2024-03-23T02:06:24;98545.44;;;8.93
69186;BMP280;56298;49.246;9.410;2024-03-23T02:08:49;98543.22;;;8.79
69186;BMP280;56298;49.246;9.410;2024-03-23T02:11:15;98548.28;;;8.57
69186;BMP280;56298;49.246;9.410;2024-03-23T02:13:40;98538.13;;;8.57
69186;BMP280;56298;49.246;9.410;2024-03-23T02:16:06;98530.72;;;8.58
69186;BMP280;56298;49.246;9.410;2024-03-23T02:18:34;98535.94;;;8.67
69186;BMP280;56298;49.246;9.410;2024-03-23T02:21:00;98522.94;;;8.80
69186;BMP280;56298;49.246;9.410;2024-03-23T02:23:25;98523.53;;;8.49
69186;BMP280;56298;49.246;9.410;2024-03-23T02:25:51;98534.84;;;8.52
69186;BMP280;56298;49.246;9.410;2024-03-23T02:28:16;98522.63;;;8.65
69186;BMP280;56298;49.246;9.410;2024-03-23T02:30:42;98515.66;;;8.68
69186;BMP280;56298;49.246;9.410;2024-03-23T02:33:07;98499.38;;;8.71
69186;BMP280;56298;49.246;9.410;2024-03-23T02:35:33;98491.50;;;8.89
69186;BMP280;56298;49.246;9.410;2024-03-23T02:37:58;98485.16;;;8.85
69186;BMP280;56298;49.246;9.410;2024-03-23T02:40:24;98491.00;;;8.64
69186;BMP280;56298;49.246;9.410;2024-03-23T02:42:49;98493.69;;;8.41
69186;BMP280;56298;49.246;9.410;2024-03-23T02:45:15;98490.31;;;8.47
69186;BMP280;56298;49.246;9.410;2024-03-23T02:47:40;98503.31;;;8.74
69186;BMP280;56298;49.246;9.410;2024-03-23T02:50:06;98489.78;;;9.04
69186;BMP280;56298;49.246;9.410;2024-03-23T02:52:31;98488.16;;;9.23
69186;BMP280;56298;49.246;9.410;2024-03-23T02:54:57;98489.25;;;9.18
69186;BMP280;56298;49.246;9.410;2024-03-23T02:57:22;98475.75;;;9.29
69186;BMP280;56298;49.246;9.410;2024-03-23T02:59:47;98477.28;;;9.03
69186;BMP280;56298;49.246;9.410;2024-03-23T03:02:15;98479.53;;;9.21
69186;BMP280;56298;49.246;9.410;2024-03-23T03:04:41;98478.50;;;9.29
69186;BMP280;56298;49.246;9.410;2024-03-23T03:07:06;98466.66;;;9.22
69186;BMP280;56298;49.246;9.410;2024-03-23T03:09:31;98464.00;;;9.02
69186;BMP280;56298;49.246;9.410;2024-03-23T03:11:57;98474.13;;;9.01
69186;BMP280;56298;49.246;9.410;2024-03-23T03:14:23;98473.59;;;8.96
69186;BMP280;56298;49.246;9.410;2024-03-23T03:16:48;98473.75;;;9.03
69186;BMP280;56298;49.246;9.410;2024-03-23T03:19:13;98475.50;;;9.15
69186;BMP280;56298;49.246;9.410;2024-03-23T03:21:40;98473.03;;;9.06
69186;BMP280;56298;49.246;9.410;2024-03-23T03:24:06;98475.75;;;9.06
69186;BMP280;56298;49.246;9.410;2024-03-23T03:26:31;98461.16;;;8.98
69186;BMP280;56298;49.246;9.410;2024-03-23T03:28:57;98461.34;;;8.86
69186;BMP280;56298;49.246;9.410;2024-03-23T03:31:22;98457.25;;;8.76
69186;BMP280;56298;49.246;9.410;2024-03-23T03:33:49;98458.41;;;8.75
69186;BMP280;56298;49.246;9.410;2024-03-23T03:36:14;98446.25;;;8.72
69186;BMP280;56298;49.246;9.410;2024-03-23T03:38:40;98451.09;;;8.79
69186;BMP280;56298;49.246;9.410;2024-03-23T03:41:05;98461.00;;;8.87
69186;BMP280;56298;49.246;9.410;2024-03-23T03:43:31;98457.75;;;9.05
69186;BMP280;56298;49.246;9.410;2024-03-23T03:45:58;98448.66;;;9.21
69186;BMP280;56298;49.246;9.410;2024-03-23T03:48:24;98451.13;;;9.29
69186;BMP280;56298;49.246;9.410;2024-03-23T03:50:49;98444.97;;;9.36
69186;BMP280;56298;49.246;9.410;2024-03-23T03:53:15;98437.47;;;9.29
69186;BMP280;56298;49.246;9.410;2024-03-23T03:55:40;98440.75;;;9.15
69186;BMP280;56298;49.246;9.410;2024-03-23T03:58:06;98439.16;;;9.14
69186;BMP280;56298;49.246;9.410;2024-03-23T04:00:31;98429.72;;;8.85
69186;BMP280;56298;49.246;9.410;2024-03-23T04:02:57;98426.53;;;8.83
69186;BMP280;56298;49.246;9.410;2024-03-23T04:05:23;98434.63;;;8.75
69186;BMP280;56298;49.246;9.410;2024-03-23T04:07:48;98435.28;;;8.69
69186;BMP280;56298;49.246;9.410;2024-03-23T04:10:14;98420.16;;;8.75
69186;BMP280;56298;49.246;9.410;2024-03-23T04:12:43;98418.38;;;8.86
69186;BMP280;56298;49.246;9.410;2024-03-23T04:15:08;98418.56;;;8.97
69186;BMP280;56298;49.246;9.410;2024-03-23T04:17:34;98411.72;;;9.07
69186;BMP280;56298;49.246;9.410;2024-03-23T04:20:00;98404.81;;;9.17
69186;BMP280;56298;49.246;9.410;2024-03-23T04:22:26;98413.56;;;9.26
69186;BMP280;56298;49.246;9.410;2024-03-23T04:24:56;98412.41;;;9.27
69186;BMP280;56298;49.246;9.410;2024-03-23T04:27:22;98410.09;;;9.29
69186;BMP280;56298;49.246;9.410;2024-03-23T04:29:50;98400.50;;;9.43
69186;BMP280;56298;49.246;9.410;2024-03-23T04:32:16;98397.50;;;9.52
69186;BMP280;56298;49.246;9.410;2024-03-23T04:34:42;98397.56;;;9.55
69186;BMP280;56298;49.246;9.410;2024-03-23T04:37:08;98398.41;;;9.59
69186;BMP280;56298;49.246;9.410;2024-03-23T04:39:34;98398.53;;;9.70
69186;BMP280;56298;49.246;9.410;2024-03-23T04:41:59;98392.41;;;9.81
69186;BMP280;56298;49.246;9.410;2024-03-23T04:44:24;98385.47;;;9.87
69186;BMP280;56298;49.246;9.410;2024-03-23T04:46:49;98392.91;;;9.90
69186;BMP280;56298;49.246;9.410;2024-03-23T04:49:15;98387.16;;;9.99
69186;BMP280;56298;49.246;9.410;2024-03-23T04:51:40;98384.47;;;10.02
69186;BMP280;56298;49.246;9.410;2024-03-23T04:54:11;98386.84;;;10.04
69186;BMP280;56298;49.246;9.410;2024-03-23T04:56:36;98388.41;;;10.05
69186;BMP280;56298;49.246;9.410;2024-03-23T04:59:02;98382.56;;;10.07
69186;BMP280;56298;49.246;9.410;2024-03-23T05:01:29;98391.22;;;10.12
69186;BMP280;56298;49.246;9.410;2024-03-23T05:03:56;98380.41;;;10.23
69186;BMP280;56298;49.246;9.410;2024-03-23T05:06:21;98386.75;;;10.31
69186;BMP280;56298;49.246;9.410;2024-03-23T05:08:46;98381.34;;;10.42
69186;BMP280;56298;49.246;9.410;2024-03-23T05:11:11;98379.84;;;10.48
69186;BMP280;56298;49.246;9.410;2024-03-23T05:13:37;98380.69;;;10.60
69186;BMP280;56298;49.246;9.410;2024-03-23T05:16:02;98379.59;;;10.64
69186;BMP280;56298;49.246;9.410;2024-03-23T05:18:27;98379.59;;;10.68
69186;BMP280;56298;49.246;9.410;2024-03-23T05:20:58;98385.13;;;10.71
69186;BMP280;56298;49.246;9.410;2024-03-23T05:23:24;98375.38;;;10.74
69186;BMP280;56298;49.246;9.410;2024-03-23T05:25:49;98400.06;;;10.78
69186;BMP280;56298;49.246;9.410;2024-03-23T05:28:14;98404.44;;;10.82
69186;BMP280;56298;49.246;9.410;2024-03-23T05:30:40;98397.78;;;10.83
69186;BMP280;56298;49.246;9.410;2024-03-23T05:33:05;98404.81;;;10.84
69186;BMP280;56298;49.246;9.410;2024-03-23T05:35:31;98403.25;;;10.83
69186;BMP280;56298;49.246;9.410;2024-03-23T05:37:57;98389.53;;;10.83
69186;BMP280;56298;49.246;9.410;2024-03-23T05:40:24;98385.63;;;10.84
69186;BMP280;56298;49.246;9.410;2024-03-23T05:42:49;98379.72;;;10.79
69186;BMP280;56298;49.246;9.410;2024-03-23T05:45:17;98387.94;;;10.79
69186;BMP280;56298;49.246;9.410;2024-03-23T05:47:43;98392.25;;;10.80
69186;BMP280;56298;49.246;9.410;2024-03-23T05:50:09;98408.34;;;10.85
69186;BMP280;56298;49.246;9.410;2024-03-23T05:52:37;98402.47;;;10.87
69186;BMP280;56298;49.246;9.410;2024-03-23T05:55:03;98415.03;;;10.88
69186;BMP280;56298;49.246;9.410;2024-03-23T05:57:28;98423.69;;;10.93
69186;BMP280;56298;49.246;9.410;2024-03-23T05:59:54;98422.88;;;10.89
69186;BMP280;56298;49.246;9.410;2024-03-23T06:02:19;98431.03;;;10.82
69186;BMP280;56298;49.246;9.410;2024-03-23T06:04:45;98436.81;;;10.69
69186;BMP280;56298;49.246;9.410;2024-03-23T06:07:10;98458.25;;;10.60
69186;BMP280;56298;49.246;9.410;2024-03-23T06:09:40;98463.25;;;10.47
69186;BMP280;56298;49.246;9.410;2024-03-23T06:12:05;98458.47;;;10.40
69186;BMP280;56298;49.246;9.410;2024-03-23T06:14:30;98469.34;;;10.37
69186;BMP280;56298;49.246;9.410;2024-03-23T06:16:56;98474.44;;;10.35
69186;BMP280;56298;49.246;9.410;2024-03-23T06:19:21;98477.16;;;10.35
69186;BMP280;56298;49.246;9.410;2024-03-23T06:21:46;98472.09;;;10.37
69186;BMP280;56298;49.246;9.410;2024-03-23T06:24:12;98478.03;;;10.39
69186;BMP280;56298;49.246;9.410;2024-03-23T06:26:37;98482.34;;;10.40
69186;BMP280;56298;49.246;9.410;2024-03-23T06:29:02;98483.88;;;10.37
69186;BMP280;56298;49.246;9.410;2024-03-23T06:31:28;98480.72;;;10.35
69186;BMP280;56298;49.246;9.410;2024-03-23T06:33:55;98488.19;;;10.38
69186;BMP280;56298;49.246;9.410;2024-03-23T06:36:20;98496.06;;;10.43
69186;BMP280;56298;49.246;9.410;2024-03-23T06:38:45;98489.44;;;10.45
69186;BMP280;56298;49.246;9.410;2024-03-23T06:41:10;98499.19;;;10.42
69186;BMP280;56298;49.246;9.410;2024-03-23T06:43:36;98511.41;;;10.48
69186;BMP280;56298;49.246;9.410;2024-03-23T06:46:03;98513.78;;;10.53
69186;BMP280;56298;49.246;9.410;2024-03-23T06:48:29;98519.63;;;10.48
69186;BMP280;56298;49.246;9.410;2024-03-23T06:50:57;98536.03;;;10.45
69186;BMP280;56298;49.246;9.410;2024-03-23T06:53:23;98553.59;;;10.43
69186;BMP280;56298;49.246;9.410;2024-03-23T06:55:52;98563.38;;;10.41
69186;BMP280;56298;49.246;9.410;2024-03-23T06:58:20;98581.50;;;10.49
69186;BMP280;56298;49.246;9.410;2024-03-23T07:00:45;98578.59;;;10.38
69186;BMP280;56298;49.246;9.410;2024-03-23T07:03:10;98592.06;;;10.20
69186;BMP280;56298;49.246;9.410;2024-03-23T07:05:35;98599.94;;;10.22
69186;BMP280;56298;49.246;9.410;2024-03-23T07:08:01;98615.69;;;10.28
69186;BMP280;56298;49.246;9.410;2024-03-23T07:10:26;98633.22;;;10.24
69186;BMP280;56298;49.246;9.410;2024-03-23T07:12:51;98647.47;;;10.37
69186;BMP280;56298;49.246;9.410;2024-03-23T07:15:17;98652.34;;;10.20
69186;BMP280;56298;49.246;9.410;2024-03-23T07:17:42;98650.56;;;10.05
69186;BMP280;56298;49.246;9.410;2024-03-23T07:20:07;98678.06;;;9.88
69186;BMP280;56298;49.246;9.410;2024-03-23T07:22:35;98683.69;;;9.99
69186;BMP280;56298;49.246;9.410;2024-03-23T07:25:01;98684.56;;;10.04
69186;BMP280;56298;49.246;9.410;2024-03-23T07:27:27;98700.22;;;10.03
69186;BMP280;56298;49.246;9.410;2024-03-23T07:29:52;98703.72;;;9.80
69186;BMP280;56298;49.246;9.410;2024-03-23T07:32:17;98706.78;;;9.75
69186;BMP280;56298;49.246;9.410;2024-03-23T07:34:42;98721.69;;;9.78
69186;BMP280;56298;49.246;9.410;2024-03-23T07:37:09;98720.22;;;9.84
69186;BMP280;56298;49.246;9.410;2024-03-23T07:39:35;98734.38;;;9.86
69186;BMP280;56298;49.246;9.410;2024-03-23T07:42:00;98755.66;;;9.96
69186;BMP280;56298;49.246;9.410;2024-03-23T07:44:25;98761.53;;;9.98
69186;BMP280;56298;49.246;9.410;2024-03-23T07:46:50;98760.88;;;9.82
69186;BMP280;56298;49.246;9.410;2024-03-23T07:49:15;98758.19;;;9.85
69186;BMP280;56298;49.246;9.410;2024-03-23T07:51:41;98763.91;;;10.00
69186;BMP280;56298;49.246;9.410;2024-03-23T07:54:06;98775.56;;;10.17
69186;BMP280;56298;49.246;9.410;2024-03-23T07:56:32;98772.28;;;10.31
69186;BMP280;56298;49.246;9.410;2024-03-23T07:58:57;98780.78;;;10.25
69186;BMP280;56298;49.246;9.410;2024-03-23T08:01:22;98787.66;;;10.15
69186;BMP280;56298;49.246;9.410;2024-03-23T08:03:49;98789.25;;;10.40
69186;BMP280;56298;49.246;9.410;2024-03-23T08:08:41;98785.34;;;11.94
69186;BMP280;56298;49.246;9.410;2024-03-23T08:11:07;98791.06;;;12.16
69186;BMP280;56298;49.246;9.410;2024-03-23T08:13:33;98799.31;;;12.16
69186;BMP280;56298;49.246;9.410;2024-03-23T08:16:00;98806.56;;;11.97
69186;BMP280;56298;49.246;9.410;2024-03-23T08:18:26;98794.09;;;11.65
69186;BMP280;56298;49.246;9.410;2024-03-23T08:21:04;98807.25;;;11.49
69186;BMP280;56298;49.246;9.410;2024-03-23T08:23:34;98822.94;;;11.18
69186;BMP280;56298;49.246;9.410;2024-03-23T08:26:02;98831.06;;;10.83
69186;BMP280;56298;49.246;9.410;2024-03-23T08:28:27;98842.44;;;10.59
69186;BMP280;56298;49.246;9.410;2024-03-23T08:30:54;98843.34;;;10.43
69186;BMP280;56298;49.246;9.410;2024-03-23T08:33:20;98848.09;;;10.23
69186;BMP280;56298;49.246;9.410;2024-03-23T08:35:55;98862.59;;;10.04
69186;BMP280;56298;49.246;9.410;2024-03-23T08:38:24;98875.72;;;10.14
69186;BMP280;56298;49.246;9.410;2024-03-23T08:41:00;98875.94;;;10.05
69186;BMP280;56298;49.246;9.410;2024-03-23T08:43:26;98881.47;;;10.28
69186;BMP280;56298;49.246;9.410;2024-03-23T08:45:52;98889.78;;;10.36
69186;BMP280;56298;49.246;9.410;2024-03-23T08:48:18;98891.59;;;10.48
69186;BMP280;56298;49.246;9.410;2024-03-23T08:50:45;98900.28;;;10.53
69186;BMP280;56298;49.246;9.410;2024-03-23T08:53:10;98899.38;;;10.46
69186;BMP280;56298;49.246;9.410;2024-03-23T08:55:36;98916.59;;;10.66
69186;BMP280;56298;49.246;9.410;2024-03-23T08:58:01;98917.72;;;10.65
69186;BMP280;56298;49.246;9.410;2024-03-23T09:00:26;98923.38;;;10.52
69186;BMP280;56298;49.246;9.410;2024-03-23T09:02:52;98931.13;;;10.47
69186;BMP280;56298;49.246;9.410;2024-03-23T09:05:18;98936.34;;;10.55
69186;BMP280;56298;49.246;9.410;2024-03-23T09:07:43;98941.25;;;11.39
69186;BMP280;56298;49.246;9.410;2024-03-23T09:10:08;98923.63;;;11.40
69186;BMP280;56298;49.246;9.410;2024-03-23T09:12:33;98939.97;;;11.60
69186;BMP280;56298;49.246;9.410;2024-03-23T09:14:59;98929.22;;;11.78
69186;BMP280;56298;49.246;9.410;2024-03-23T09:17:24;98937.31;;;11.67
69186;BMP280;56298;49.246;9.410;2024-03-23T09:19:49;98931.09;;;11.71
69186;BMP280;56298;49.246;9.410;2024-03-23T09:22:14;98955.53;;;11.79
69186;BMP280;56298;49.246;9.410;2024-03-23T09:24:40;98952.69;;;11.72
69186;BMP280;56298;49.246;9.410;2024-03-23T09:27:05;98942.19;;;11.51
69186;BMP280;56298;49.246;9.410;2024-03-23T09:29:30;98928.53;;;11.58
69186;BMP280;56298;49.246;9.410;2024-03-23T09:31:55;98943.97;;;11.97
69186;BMP280;56298;49.246;9.410;2024-03-23T09:34:21;98943.31;;;12.45
69186;BMP280;56298;49.246;9.410;2024-03-23T09:36:47;98946.72;;;12.73
69186;BMP280;56298;49.246;9.410;2024-03-23T09:39:12;98933.63;;;13.04
69186;BMP280;56298;49.246;9.410;2024-03-23T09:41:38;98940.13;;;13.41
69186;BMP280;56298;49.246;9.410;2024-03-23T09:44:04;98947.69;;;13.55
69186;BMP280;56298;49.246;9.410;2024-03-23T09:46:30;98943.41;;;13.68
69186;BMP280;56298;49.246;9.410;2024-03-23T09:48:59;98954.56;;;14.04
69186;BMP280;56298;49.246;9.410;2024-03-23T09:51:24;98951.88;;;14.26
69186;BMP280;56298;49.246;9.410;2024-03-23T09:53:50;98953.78;;;14.11
69186;BMP280;56298;49.246;9.410;2024-03-23T09:56:15;98959.78;;;14.35
69186;BMP280;56298;49.246;9.410;2024-03-23T09:58:42;98949.16;;;14.55
69186;BMP280;56298;49.246;9.410;2024-03-23T10:01:07;98951.50;;;14.49
69186;BMP280;56298;49.246;9.410;2024-03-23T10:03:42;98956.97;;;14.17
69186;BMP280;56298;49.246;9.410;2024-03-23T10:06:07;98955.75;;;14.07
69186;BMP280;56298;49.246;9.410;2024-03-23T10:08:32;98956.22;;;14.27
69186;BMP280;56298;49.246;9.410;2024-03-23T10:11:12;98965.69;;;14.37
69186;BMP280;56298;49.246;9.410;2024-03-23T10:13:41;98969.25;;;14.45
69186;BMP280;56298;49.246;9.410;2024-03-23T10:16:06;98954.66;;;14.41
69186;BMP280;56298;49.246;9.410;2024-03-23T10:18:36;98950.59;;;13.98
69186;BMP280;56298;49.246;9.410;2024-03-23T10:23:30;98960.91;;;13.31
69186;BMP280;56298;49.246;9.410;2024-03-23T10:25:55;98961.03;;;13.49
69186;BMP280;56298;49.246;9.410;2024-03-23T10:28:20;98972.19;;;13.81
69186;BMP280;56298;49.246;9.410;2024-03-23T10:30:45;98963.13;;;13.77
69186;BMP280;56298;49.246;9.410;2024-03-23T10:33:11;98969.22;;;13.38
69186;BMP280;56298;49.246;9.410;2024-03-23T10:35:37;98965.56;;;13.23
69186;BMP280;56298;49.246;9.410;2024-03-23T10:38:06;98965.09;;;13.14
69186;BMP280;56298;49.246;9.410;2024-03-23T10:40:34;98963.97;;;13.18
69186;BMP280;56298;49.246;9.410;2024-03-23T10:43:00;98966.50;;;13.45
69186;BMP280;56298;49.246;9.410;2024-03-23T10:45:25;98958.72;;;13.62
69186;BMP280;56298;49.246;9.410;2024-03-23T10:47:51;98960.56;;;13.39
69186;BMP280;56298;49.246;9.410;2024-03-23T10:50:17;98954.31;;;13.46
69186;BMP280;56298;49.246;9.410;2024-03-23T10:52:46;98965.34;;;13.46
69186;BMP280;56298;49.246;9.410;2024-03-23T10:55:12;98974.75;;;13.38
69186;BMP280;56298;49.246;9.410;2024-03-23T10:57:45;98973.38;;;13.14
69186;BMP280;56298;49.246;9.410;2024-03-23T11:00:13;98967.53;;;12.74
69186;BMP280;56298;49.246;9.410;2024-03-23T11:02:39;98965.44;;;12.56
69186;BMP280;56298;49.246;9.410;2024-03-23T11:07:52;98987.72;;;11.79
69186;BMP280;56298;49.246;9.410;2024-03-23T11:12:51;98980.38;;;11.60
69186;BMP280;56298;49.246;9.410;2024-03-23T11:15:16;98975.75;;;11.94
69186;BMP280;56298;49.246;9.410;2024-03-23T11:17:41;98979.25;;;12.25
69186;BMP280;56298;49.246;9.410;2024-03-23T11:20:07;98983.47;;;12.53
69186;BMP280;56298;49.246;9.410;2024-03-23T11:25:02;98961.88;;;13.04
69186;BMP280;56298;49.246;9.410;2024-03-23T11:27:28;98955.00;;;13.29
69186;BMP280;56298;49.246;9.410;2024-03-23T11:29:53;98961.56;;;13.76
69186;BMP280;56298;49.246;9.410;2024-03-23T11:32:18;98956.91;;;13.95
69186;BMP280;56298;49.246;9.410;2024-03-23T11:34:43;98961.69;;;14.09
69186;BMP280;56298;49.246;9.410;2024-03-23T11:37:08;98963.72;;;14.34
69186;BMP280;56298;49.246;9.410;2024-03-23T11:39:34;98958.56;;;14.36
69186;BMP280;56298;49.246;9.410;2024-03-23T11:41:59;98951.53;;;14.67
69186;BMP280;56298;49.246;9.410;2024-03-23T11:44:27;98947.97;;;14.56
69186;BMP280;56298;49.246;9.410;2024-03-23T11:46:52;98944.44;;;14.56
69186;BMP280;56298;49.246;9.410;2024-03-23T11:49:24;98945.97;;;14.49
69186;BMP280;56298;49.246;9.410;2024-03-23T11:51:51;98950.34;;;14.47
69186;BMP280;56298;49.246;9.410;2024-03-23T11:54:20;98942.81;;;14.36
69186;BMP280;56298;49.246;9.410;2024-03-23T11:56:56;98945.56;;;14.36
69186;BMP280;56298;49.246;9.410;2024-03-23T11:59:32;98943.63;;;14.62
69186;BMP280;56298;49.246;9.410;2024-03-23T12:01:58;98934.59;;;14.47
69186;BMP280;56298;49.246;9.410;2024-03-23T12:04:27;98938.06;;;14.30
69186;BMP280;56298;49.246;9.410;2024-03-23T12:07:12;98927.03;;;14.19
69186;BMP280;56298;49.246;9.410;2024-03-23T12:09:38;98932.97;;;14.21
69186;BMP280;56298;49.246;9.410;2024-03-23T12:12:17;98923.53;;;14.47
69186;BMP280;56298;49.246;9.410;2024-03-23T12:15:01;98919.19;;;14.90
69186;BMP280;56298;49.246;9.410;2024-03-23T12:17:27;98908.34;;;15.57
69186;BMP280;56298;49.246;9.410;2024-03-23T12:19:52;98906.88;;;15.27
69186;BMP280;56298;49.246;9.410;2024-03-23T12:22:20;98906.56;;;15.03
69186;BMP280;56298;49.246;9.410;2024-03-23T12:24:46;98911.66;;;15.01
69186;BMP280;56298;49.246;9.410;2024-03-23T12:27:11;98903.06;;;14.59
69186;BMP280;56298;49.246;9.410;2024-03-23T12:29:36;98914.84;;;14.38
69186;BMP280;56298;49.246;9.410;2024-03-23T12:32:04;98901.00;;;14.02
69186;BMP280;56298;49.246;9.410;2024-03-23T12:34:29;98900.63;;;14.07
69186;BMP280;56298;49.246;9.410;2024-03-23T12:36:55;98905.00;;;14.26
69186;BMP280;56298;49.246;9.410;2024-03-23T12:39:21;98899.00;;;13.88
69186;BMP280;56298;49.246;9.410;2024-03-23T12:41:47;98901.75;;;13.99
69186;BMP280;56298;49.246;9.410;2024-03-23T12:44:12;98894.25;;;13.81
69186;BMP280;56298;49.246;9.410;2024-03-23T12:46:38;98894.34;;;14.28
69186;BMP280;56298;49.246;9.410;2024-03-23T12:49:04;98886.84;;;14.61
69186;BMP280;56298;49.246;9.410;2024-03-23T12:51:30;98906.16;;;14.32
69186;BMP280;56298;49.246;9.410;2024-03-23T12:53:55;98894.72;;;14.12
69186;BMP280;56298;49.246;9.410;2024-03-23T12:56:21;98888.84;;;14.28
69186;BMP280;56298;49.246;9.410;2024-03-23T12:58:46;98882.94;;;14.70
69186;BMP280;56298;49.246;9.410;2024-03-23T13:01:16;98878.59;;;14.43
69186;BMP280;56298;49.246;9.410;2024-03-23T13:03:41;98892.72;;;14.02
69186;BMP280;56298;49.246;9.410;2024-03-23T13:06:06;98876.97;;;13.95
69186;BMP280;56298;49.246;9.410;2024-03-23T13:08:33;98877.75;;;13.99
69186;BMP280;56298;49.246;9.410;2024-03-23T13:10:59;98886.03;;;13.99
69186;BMP280;56298;49.246;9.410;2024-03-23T13:13:24;98871.91;;;14.26
69186;BMP280;56298;49.246;9.410;2024-03-23T13:15:50;98882.09;;;13.96
69186;BMP280;56298;49.246;9.410;2024-03-23T13:18:15;98906.81;;;13.64
69186;BMP280;56298;49.246;9.410;2024-03-23T13:20:41;98924.28;;;13.23
69186;BMP280;56298;49.246;9.410;2024-03-23T13:23:06;98919.72;;;12.06
69186;BMP280;56298;49.246;9.410;2024-03-23T13:25:31;98916.06;;;11.07
69186;BMP280;56298;49.246;9.410;2024-03-23T13:27:56;98934.78;;;10.54
69186;BMP280;56298;49.246;9.410;2024-03-23T13:30:21;98951.78;;;10.64
69186;BMP280;56298;49.246;9.410;2024-03-23T13:32:47;98968.69;;;10.66
69186;BMP280;56298;49.246;9.410;2024-03-23T13:35:12;98984.34;;;9.70
69186;BMP280;56298;49.246;9.410;2024-03-23T13:37:37;99000.13;;;9.93
69186;BMP280;56298;49.246;9.410;2024-03-23T13:40:03;99015.03;;;9.96
69186;BMP280;56298;49.246;9.410;2024-03-23T13:42:28;99037.28;;;9.58
69186;BMP280;56298;49.246;9.410;2024-03-23T13:44:53;99023.66;;;8.98
69186;BMP280;56298;49.246;9.410;2024-03-23T13:47:18;99010.31;;;8.80
69186;BMP280;56298;49.246;9.410;2024-03-23T13:49:44;98986.66;;;8.72
69186;BMP280;56298;49.246;9.410;2024-03-23T13:52:09;98968.84;;;8.78
69186;BMP280;56298;49.246;9.410;2024-03-23T13:54:34;98980.81;;;9.18
69186;BMP280;56298;49.246;9.410;2024-03-23T13:56:59;98977.31;;;9.53
69186;BMP280;56298;49.246;9.410;2024-03-23T13:59:25;98983.47;;;9.66
69186;BMP280;56298;49.246;9.410;2024-03-23T14:01:50;98987.22;;;9.58
69186;BMP280;56298;49.246;9.410;2024-03-23T14:04:17;98970.97;;;9.85
69186;BMP280;56298;49.246;9.410;2024-03-23T14:06:44;98980.66;;;9.98
69186;BMP280;56298;49.246;9.410;2024-03-23T14:09:13;98988.66;;;9.71
69186;BMP280;56298;49.246;9.410;2024-03-23T14:11:40;98985.72;;;9.44
69186;BMP280;56298;49.246;9.410;2024-03-23T14:14:07;99000.97;;;8.97
69186;BMP280;56298;49.246;9.410;2024-03-23T14:16:33;98994.41;;;8.70
69186;BMP280;56298;49.246;9.410;2024-03-23T14:18:58;98969.34;;;8.68
69186;BMP280;56298;49.246;9.410;2024-03-23T14:21:23;98967.19;;;8.89
69186;BMP280;56298;49.246;9.410;2024-03-23T14:23:49;98956.78;;;8.95
69186;BMP280;56298;49.246;9.410;2024-03-23T14:26:14;98937.53;;;8.75
69186;BMP280;56298;49.246;9.410;2024-03-23T14:28:39;98949.78;;;8.66
69186;BMP280;56298;49.246;9.410;2024-03-23T14:31:05;98950.03;;;8.60
69186;BMP280;56298;49.246;9.410;2024-03-23T14:33:36;98943.78;;;8.60
69186;BMP280;56298;49.246;9.410;2024-03-23T14:36:02;98942.88;;;8.56
69186;BMP280;56298;49.246;9.410;2024-03-23T14:38:28;98935.03;;;8.54
69186;BMP280;56298;49.246;9.410;2024-03-23T14:40:53;98933.47;;;8.69
69186;BMP280;56298;49.246;9.410;2024-03-23T14:43:19;98924.13;;;8.86
69186;BMP280;56298;49.246;9.410;2024-03-23T14:46:07;98928.97;;;8.93
69186;BMP280;56298;49.246;9.410;2024-03-23T14:48:32;98929.16;;;8.84
69186;BMP280;56298;49.246;9.410;2024-03-23T14:50:59;98925.56;;;8.80
69186;BMP280;56298;49.246;9.410;2024-03-23T14:53:25;98918.22;;;8.68
69186;BMP280;56298;49.246;9.410;2024-03-23T14:55:54;98906.03;;;8.66
69186;BMP280;56298;49.246;9.410;2024-03-23T14:58:19;98909.59;;;8.66
69186;BMP280;56298;49.246;9.410;2024-03-23T15:00:45;98921.28;;;8.67
69186;BMP280;56298;49.246;9.410;2024-03-23T15:03:10;98913.81;;;8.63
69186;BMP280;56298;49.246;9.410;2024-03-23T15:05:35;98916.16;;;8.65
69186;BMP280;56298;49.246;9.410;2024-03-23T15:08:02;98914.44;;;8.73
69186;BMP280;56298;49.246;9.410;2024-03-23T15:10:28;98903.34;;;8.82
69186;BMP280;56298;49.246;9.410;2024-03-23T15:12:53;98901.53;;;8.73